Time;durP1;ratioP1;P1;durP2;ratioP2;P2;SDS_P1;SDS_P2;PMS_P1;PMS_P2;Temp;Humidity;BMP_temperature;BMP_pressure;BME280_temperature;BME280_humidity;BME280_pressure;Samples;Min_cycle;Max_cycle;Signal;HPM_P1;HPM_P2
2023/01/15 00:02:16;;;;;;;1.73;0.45;;;10.30;76.80;;;;;;5022811;28;20053;-55
2023/01/15 00:04:44;;;;;;;1.20;0.52;;;10.20;77.10;;;;;;5027484;28;20046;-52
2023/01/15 00:07:16;;;;;;;4.55;0.80;;;10.20;77.60;;;;;;5012413;28;20104;-49
2023/01/15 00:09:50;;;;;;;1.67;0.50;;;10.10;77.90;;;;;;5012852;28;20121;-48
2023/01/15 00:12:19;;;;;;;0.68;0.55;;;10.10;78.30;;;;;;5022716;28;20061;-50
2023/01/15 00:14:48;;;;;;;2.88;1.10;;;10.00;78.40;;;;;;5031209;28;20045;-47
2023/01/15 00:17:15;;;;;;;1.63;0.60;;;10.00;78.60;;;;;;5024569;28;20091;-50
2023/01/15 00:19:41;;;;;;;1.38;0.55;;;9.90;78.70;;;;;;5013453;28;20042;-50
2023/01/15 00:22:09;;;;;;;2.80;0.77;;;9.90;78.80;;;;;;5030381;28;20042;-48
2023/01/15 00:27:47;;;;;;;0.50;0.40;;;9.90;79.20;;;;;;5016880;28;20124;-50
2023/01/15 00:30:16;;;;;;;1.40;0.60;;;9.90;79.00;;;;;;5023849;28;20103;-47
2023/01/15 00:32:43;;;;;;;2.85;0.55;;;9.90;78.80;;;;;;5030415;28;20092;-50
2023/01/15 00:35:19;;;;;;;1.10;0.75;;;9.90;78.70;;;;;;5024825;28;20390;-48
2023/01/15 00:37:46;;;;;;;1.63;0.70;;;9.90;78.70;;;;;;5011205;28;20037;-47
2023/01/15 00:40:17;;;;;;;0.60;0.60;;;9.90;78.80;;;;;;5030143;28;20072;-49
2023/01/15 00:42:44;;;;;;;3.05;0.63;;;9.90;78.90;;;;;;5029222;28;20053;-51
2023/01/15 00:45:20;;;;;;;2.03;0.47;;;9.90;79.00;;;;;;5020969;28;20057;-47
2023/01/15 00:47:52;;;;;;;2.85;0.60;;;9.80;79.00;;;;;;4992399;28;20152;-51
2023/01/15 00:50:22;;;;;;;3.90;0.85;;;9.90;79.10;;;;;;5010904;28;20100;-47
2023/01/15 00:52:51;;;;;;;1.95;0.68;;;9.90;79.00;;;;;;5030530;28;20045;-48
2023/01/15 00:55:20;;;;;;;1.85;0.32;;;9.90;78.90;;;;;;5017767;28;20092;-48
2023/01/15 00:57:46;;;;;;;1.88;0.40;;;9.90;78.90;;;;;;4993386;28;20103;-50
2023/01/15 01:00:13;;;;;;;3.17;0.93;;;9.80;78.70;;;;;;5030235;28;20532;-47
2023/01/15 01:02:43;;;;;;;3.38;0.47;;;9.80;78.70;;;;;;5020711;28;20515;-50
2023/01/15 01:05:12;;;;;;;6.15;0.73;;;9.80;78.80;;;;;;4995897;28;20053;-48
2023/01/15 01:07:41;;;;;;;1.23;0.50;;;9.80;78.80;;;;;;5027649;28;20045;-52
2023/01/15 01:10:10;;;;;;;2.00;0.73;;;9.80;78.50;;;;;;5059415;22;20136;-48
2023/01/15 01:12:37;;;;;;;2.40;0.60;;;9.80;78.50;;;;;;5034851;28;20036;-48
2023/01/15 01:15:07;;;;;;;1.05;0.68;;;9.80;78.30;;;;;;5034392;28;20040;-48
2023/01/15 01:17:40;;;;;;;2.30;0.63;;;9.80;78.30;;;;;;5018931;28;20436;-48
2023/01/15 01:20:12;;;;;;;1.52;0.50;;;9.80;78.40;;;;;;5029483;28;20049;-50
2023/01/15 01:22:39;;;;;;;2.83;0.63;;;9.70;78.30;;;;;;5010212;28;20073;-46
2023/01/15 01:25:09;;;;;;;2.65;0.65;;;9.70;78.40;;;;;;5016523;28;20052;-50
2023/01/15 01:27:38;;;;;;;1.48;0.95;;;9.70;78.40;;;;;;5021651;28;20120;-49
2023/01/15 01:30:06;;;;;;;2.92;0.65;;;9.70;78.10;;;;;;5029761;28;20041;-50
2023/01/15 01:32:34;;;;;;;1.55;0.70;;;9.70;77.90;;;;;;5006634;28;20051;-48
2023/01/15 01:35:03;;;;;;;0.75;0.32;;;9.70;78.50;;;;;;5028508;28;20136;-50
2023/01/15 01:37:30;;;;;;;2.72;0.63;;;9.70;77.60;;;;;;5010993;28;20072;-48
2023/01/15 01:40:00;;;;;;;1.00;0.50;;;9.70;77.40;;;;;;5001531;28;20075;-47
2023/01/15 01:42:29;;;;;;;0.50;0.28;;;9.70;77.50;;;;;;5017202;28;20073;-50
2023/01/15 01:45:16;;;;;;;3.47;0.63;;;9.70;77.30;;;;;;5029073;28;20179;-50
2023/01/15 01:47:45;;;;;;;1.63;0.50;;;9.70;77.30;;;;;;5005901;28;20095;-47
2023/01/15 01:50:14;;;;;;;1.42;0.77;;;9.60;77.30;;;;;;5009963;28;20056;-48
2023/01/15 01:52:52;;;;;;;3.70;0.60;;;9.60;77.50;;;;;;5024643;28;20060;-48
2023/01/15 01:55:22;;;;;;;1.10;0.52;;;9.60;77.50;;;;;;5011225;28;20132;-47
2023/01/15 01:57:54;;;;;;;0.98;0.40;;;9.70;77.40;;;;;;5027338;28;20478;-49
2023/01/15 02:00:23;;;;;;;0.40;0.40;;;9.70;78.10;;;;;;5012680;28;20132;-47
2023/01/15 02:02:52;;;;;;;2.67;0.70;;;9.70;77.50;;;;;;5024252;28;20518;-47
2023/01/15 02:05:32;;;;;;;2.20;0.40;;;9.70;77.40;;;;;;5010838;28;20053;-47
2023/01/15 02:07:59;;;;;;;2.78;0.55;;;9.70;77.20;;;;;;5029052;28;20049;-47
2023/01/15 02:10:27;;;;;;;3.50;0.98;;;9.70;77.30;;;;;;5006621;28;20526;-49
2023/01/15 02:13:04;;;;;;;3.00;0.60;;;9.70;77.40;;;;;;5011183;28;20037;-48
2023/01/15 02:15:39;;;;;;;4.50;0.60;;;9.70;77.40;;;;;;5028899;28;20045;-49
2023/01/15 02:18:08;;;;;;;3.10;0.80;;;9.70;77.50;;;;;;5028080;28;20107;-51
2023/01/15 02:20:46;;;;;;;2.38;0.90;;;9.70;77.50;;;;;;4999726;28;20049;-49
2023/01/15 02:23:34;;;;;;;2.63;0.60;;;9.70;77.60;;;;;;5025450;28;20088;-47
2023/01/15 02:26:35;;;;;;;3.35;0.88;;;9.80;77.40;;;;;;5011011;28;20149;-48
2023/01/15 02:29:14;;;;;;;1.42;0.80;;;9.80;77.40;;;;;;5029868;28;20053;-46
2023/01/15 02:31:44;;;;;;;1.08;0.63;;;9.80;77.60;;;;;;5003512;28;20084;-46
2023/01/15 02:34:26;;;;;;;3.05;0.90;;;9.80;77.60;;;;;;5010252;28;20052;-48
2023/01/15 02:37:02;;;;;;;2.20;0.63;;;9.80;77.60;;;;;;5009819;28;20537;-46
2023/01/15 02:39:41;;;;;;;4.60;1.13;;;9.80;77.70;;;;;;5012871;28;20395;-46
2023/01/15 02:42:12;;;;;;;1.85;0.50;;;9.80;77.70;;;;;;5004252;28;20052;-47
2023/01/15 02:44:48;;;;;;;5.10;0.98;;;9.90;77.70;;;;;;5027703;28;20063;-48
2023/01/15 02:47:18;;;;;;;1.95;0.55;;;9.90;77.80;;;;;;5010388;28;20092;-48
2023/01/15 02:49:46;;;;;;;5.13;0.75;;;9.90;77.70;;;;;;5008334;28;20046;-47
2023/01/15 02:52:31;;;;;;;1.08;0.75;;;9.90;77.70;;;;;;5010222;28;20115;-46
2023/01/15 02:55:26;;;;;;;1.77;0.75;;;9.90;77.30;;;;;;5011727;28;20115;-45
2023/01/15 02:58:03;;;;;;;2.90;0.47;;;9.90;77.00;;;;;;5005244;28;20074;-49
2023/01/15 03:00:36;;;;;;;2.10;1.48;;;10.00;77.40;;;;;;5030015;28;20964;-50
2023/01/15 03:03:12;;;;;;;2.33;0.95;;;10.00;77.30;;;;;;5014785;28;20532;-46
2023/01/15 03:06:11;;;;;;;5.47;1.08;;;10.00;77.00;;;;;;5006009;28;20551;-48
2023/01/15 03:08:39;;;;;;;2.50;0.47;;;10.00;76.80;;;;;;5024496;28;20091;-50
2023/01/15 03:11:20;;;;;;;1.42;0.68;;;10.00;76.90;;;;;;5014049;28;20080;-50
2023/01/15 03:14:22;;;;;;;5.20;1.00;;;10.00;76.50;;;;;;5009416;28;20037;-48
2023/01/15 03:16:58;;;;;;;2.72;1.00;;;10.00;76.40;;;;;;5006294;28;20528;-48
2023/01/15 03:19:40;;;;;;;3.67;1.25;;;10.00;76.60;;;;;;5032523;28;20220;-51
2023/01/15 03:22:22;;;;;;;6.03;1.35;;;10.10;76.50;;;;;;5014650;28;20124;-47
2023/01/15 03:25:10;;;;;;;3.25;0.95;;;10.00;76.50;;;;;;5026612;28;20144;-47
2023/01/15 03:27:44;;;;;;;3.90;0.80;;;10.10;76.60;;;;;;5007520;28;20473;-47
2023/01/15 03:30:16;;;;;;;8.45;1.00;;;10.10;76.40;;;;;;5014382;28;20048;-48
2023/01/15 03:32:53;;;;;;;6.40;1.77;;;10.00;76.30;;;;;;5029522;28;20048;-45
2023/01/15 03:35:57;;;;;;;5.53;1.10;;;10.10;76.50;;;;;;5020141;28;20140;-50
2023/01/15 03:38:46;;;;;;;6.05;1.15;;;10.10;76.20;;;;;;5006283;28;20049;-48
2023/01/15 03:41:50;;;;;;;4.75;1.23;;;10.00;76.40;;;;;;5013019;28;20042;-48
2023/01/15 03:44:38;;;;;;;3.35;0.90;;;10.10;76.40;;;;;;5028525;28;20033;-47
2023/01/15 03:47:40;;;;;;;3.38;0.90;;;10.10;76.20;;;;;;5013480;28;20456;-47
2023/01/15 03:50:25;;;;;;;4.47;0.75;;;10.10;76.10;;;;;;5026063;28;20053;-46
2023/01/15 03:53:16;;;;;;;2.65;1.00;;;10.10;76.30;;;;;;5009505;28;20069;-47
2023/01/15 03:56:16;;;;;;;1.58;0.82;;;10.10;76.10;;;;;;5005884;28;20057;-47
2023/01/15 03:58:58;;;;;;;4.93;1.10;;;10.10;76.00;;;;;;5005463;28;20041;-46
2023/01/15 04:01:41;;;;;;;8.32;0.82;;;10.10;76.00;;;;;;5012507;28;20038;-47
2023/01/15 04:04:13;;;;;;;4.00;1.00;;;9.90;76.00;;;;;;5009925;28;20052;-48
2023/01/15 04:06:42;;;;;;;5.10;0.95;;;10.10;76.00;;;;;;5011982;28;20049;-50
2023/01/15 04:09:13;;;;;;;3.33;1.20;;;10.00;75.80;;;;;;5012895;28;20064;-48
2023/01/15 04:11:41;;;;;;;4.18;1.17;;;10.00;75.80;;;;;;5007902;28;20056;-48
2023/01/15 04:14:13;;;;;;;6.40;1.30;;;10.00;75.90;;;;;;5026563;28;20045;-49
2023/01/15 04:16:49;;;;;;;2.88;1.00;;;10.00;75.60;;;;;;5005610;28;20049;-50
2023/01/15 04:19:21;;;;;;;2.33;1.10;;;10.00;75.40;;;;;;5013566;28;20041;-46
2023/01/15 04:21:58;;;;;;;5.05;1.33;;;10.00;75.50;;;;;;5011969;28;20065;-47
2023/01/15 04:24:27;;;;;;;2.80;0.88;;;10.00;75.30;;;;;;5030907;28;20557;-46
2023/01/15 04:26:56;;;;;;;4.53;1.10;;;10.00;75.10;;;;;;5030675;28;20413;-49
2023/01/15 04:29:25;;;;;;;1.70;0.65;;;10.10;75.00;;;;;;5028851;28;20443;-47
2023/01/15 04:31:56;;;;;;;5.45;1.20;;;10.00;74.80;;;;;;5025114;28;20135;-48
2023/01/15 04:34:27;;;;;;;3.90;0.98;;;10.10;74.80;;;;;;5030761;28;20041;-47
2023/01/15 04:37:01;;;;;;;5.43;1.05;;;10.10;74.30;;;;;;5012763;28;20100;-50
2023/01/15 04:39:28;;;;;;;4.53;1.00;;;10.10;74.20;;;;;;5012012;28;20033;-48
2023/01/15 04:44:43;;;;;;;4.25;1.27;;;10.10;74.10;;;;;;5022115;28;20045;-48
2023/01/15 04:47:09;;;;;;;3.65;0.80;;;10.10;74.00;;;;;;5027483;28;20409;-48
2023/01/15 04:49:38;;;;;;;4.60;1.30;;;10.10;73.90;;;;;;5024680;28;20056;-49
2023/01/15 04:52:08;;;;;;;2.75;0.75;;;10.10;73.80;;;;;;5030262;28;20067;-51
2023/01/15 04:54:41;;;;;;;6.53;1.38;;;10.10;74.40;;;;;;5030267;28;20555;-48
2023/01/15 04:57:12;;;;;;;3.05;0.98;;;10.10;73.70;;;;;;5027469;28;20091;-47
2023/01/15 04:59:39;;;;;;;5.22;1.35;;;10.10;73.60;;;;;;5029940;28;20053;-49
2023/01/15 05:02:08;;;;;;;5.35;1.80;;;10.10;73.70;;;;;;5029724;28;20045;-50
2023/01/15 05:04:37;;;;;;;5.80;1.52;;;10.10;73.60;;;;;;5029829;28;20068;-50
2023/01/15 05:07:04;;;;;;;4.53;1.75;;;10.10;73.70;;;;;;5024020;28;20073;-47
2023/01/15 05:09:42;;;;;;;5.80;1.63;;;10.10;73.50;;;;;;5022872;28;20041;-46
2023/01/15 05:12:08;;;;;;;6.68;1.38;;;10.10;73.00;;;;;;5025295;28;20116;-47
2023/01/15 05:14:35;;;;;;;2.60;0.93;;;10.10;73.20;;;;;;5029702;28;20033;-49
2023/01/15 05:17:05;;;;;;;5.75;2.20;;;10.10;73.10;;;;;;5029048;28;20044;-50
2023/01/15 05:19:34;;;;;;;5.53;1.42;;;10.10;73.10;;;;;;5027571;28;20056;-48
2023/01/15 05:22:06;;;;;;;2.80;1.20;;;10.10;73.00;;;;;;5029238;28;20034;-46
2023/01/15 05:24:35;;;;;;;3.95;1.17;;;10.10;72.70;;;;;;5030182;28;20056;-47
2023/01/15 05:27:04;;;;;;;6.55;1.73;;;10.10;72.80;;;;;;5021192;28;20057;-47
2023/01/15 05:29:31;;;;;;;4.05;1.27;;;10.10;72.60;;;;;;5028589;28;20144;-47
2023/01/15 05:31:58;;;;;;;3.78;1.10;;;10.10;72.60;;;;;;5029232;28;20417;-49
2023/01/15 05:34:26;;;;;;;7.00;1.05;;;10.10;72.60;;;;;;5027390;28;20072;-48
2023/01/15 05:36:57;;;;;;;4.22;1.38;;;10.20;72.50;;;;;;5024306;28;20096;-46
2023/01/15 05:39:24;;;;;;;2.63;1.30;;;10.10;72.30;;;;;;5029877;28;20512;-45
2023/01/15 05:41:53;;;;;;;6.00;1.45;;;10.20;72.30;;;;;;5027971;28;20577;-47
2023/01/15 05:44:28;;;;;;;7.05;1.10;;;10.10;72.20;;;;;;5029052;28;20048;-47
2023/01/15 05:47:04;;;;;;;5.45;1.08;;;10.20;71.90;;;;;;5019664;28;20121;-46
2023/01/15 05:49:38;;;;;;;2.50;1.17;;;10.20;71.90;;;;;;5028640;28;20133;-46
2023/01/15 05:52:08;;;;;;;5.00;1.52;;;10.20;72.20;;;;;;5028833;28;20068;-44
2023/01/15 05:54:40;;;;;;;3.97;1.13;;;10.20;72.20;;;;;;5024454;28;20091;-46
2023/01/15 05:57:11;;;;;;;4.05;1.33;;;10.20;72.10;;;;;;5029166;28;20121;-45
2023/01/15 05:59:38;;;;;;;8.38;1.13;;;10.20;71.90;;;;;;5028299;28;20057;-46
2023/01/15 06:02:05;;;;;;;4.78;1.33;;;10.20;72.00;;;;;;5006515;28;20049;-47
2023/01/15 06:04:34;;;;;;;6.30;1.40;;;10.20;72.00;;;;;;5025811;28;20432;-46
2023/01/15 06:07:03;;;;;;;3.50;1.00;;;10.20;72.00;;;;;;5028869;28;20065;-45
2023/01/15 06:09:33;;;;;;;4.07;1.20;;;10.20;72.10;;;;;;5029139;28;20049;-47
2023/01/15 06:12:00;;;;;;;3.22;0.90;;;10.20;71.90;;;;;;5028753;28;20551;-46
2023/01/15 06:14:29;;;;;;;6.82;1.17;;;10.10;71.90;;;;;;5005453;28;20766;-48
2023/01/15 06:16:56;;;;;;;7.75;1.40;;;10.20;71.90;;;;;;5028620;28;20509;-47
2023/01/15 06:19:22;;;;;;;3.58;1.20;;;10.10;71.70;;;;;;5029814;28;20033;-49
2023/01/15 06:21:51;;;;;;;5.70;0.85;;;10.00;71.70;;;;;;5020493;28;20526;-47
2023/01/15 06:24:23;;;;;;;4.88;1.27;;;10.20;71.70;;;;;;5023489;28;20470;-47
2023/01/15 06:26:50;;;;;;;7.65;1.02;;;10.10;71.50;;;;;;5020579;28;20045;-46
2023/01/15 06:29:17;;;;;;;3.28;0.95;;;10.20;71.50;;;;;;5029657;28;20125;-48
2023/01/15 06:31:44;;;;;;;2.80;0.90;;;10.20;71.50;;;;;;5024736;28;20394;-48
2023/01/15 06:34:11;;;;;;;3.63;1.05;;;10.20;71.40;;;;;;5025116;28;20045;-47
2023/01/15 06:36:39;;;;;;;5.32;1.20;;;10.20;71.20;;;;;;5031431;28;20497;-49
2023/01/15 06:39:08;;;;;;;5.97;1.42;;;10.20;71.20;;;;;;5033606;28;20048;-47
2023/01/15 06:47:33;;;;;;;5.60;1.13;;;10.00;70.80;;;;;;5024027;28;20048;-47
2023/01/15 06:50:02;;;;;;;4.88;0.98;;;10.20;70.30;;;;;;5015857;28;20160;-46
2023/01/15 06:52:29;;;;;;;3.85;1.20;;;10.10;70.90;;;;;;5030981;28;20065;-48
2023/01/15 06:54:59;;;;;;;5.18;1.20;;;10.10;70.70;;;;;;5032155;28;20037;-48
2023/01/15 06:57:25;;;;;;;7.03;1.70;;;10.10;70.70;;;;;;5032116;28;20140;-46
2023/01/15 06:59:54;;;;;;;4.95;1.45;;;10.10;70.70;;;;;;5030052;28;20061;-47
2023/01/15 07:02:21;;;;;;;4.30;0.90;;;10.00;70.70;;;;;;5025105;28;20129;-47
2023/01/15 07:04:48;;;;;;;4.90;1.00;;;10.10;70.60;;;;;;5030534;28;20096;-47
2023/01/15 07:07:19;;;;;;;4.35;0.93;;;10.00;70.50;;;;;;5031731;28;20064;-46
2023/01/15 07:09:46;;;;;;;4.03;1.05;;;10.00;70.40;;;;;;5025494;28;20080;-47
2023/01/15 07:12:18;;;;;;;1.25;0.75;;;10.00;70.40;;;;;;5027328;28;20045;-47
2023/01/15 07:14:50;;;;;;;2.50;1.00;;;10.00;70.10;;;;;;5027084;28;20119;-47
2023/01/15 07:17:17;;;;;;;2.97;1.13;;;10.00;70.20;;;;;;5026334;28;20037;-49
2023/01/15 07:19:45;;;;;;;1.98;0.88;;;10.00;70.30;;;;;;5018824;28;20045;-48
2023/01/15 07:22:14;;;;;;;4.22;1.15;;;10.00;70.30;;;;;;5029510;28;20048;-49
2023/01/15 07:24:41;;;;;;;2.35;0.60;;;9.90;70.10;;;;;;5030499;28;20042;-48
2023/01/15 07:27:08;;;;;;;4.68;1.30;;;10.00;70.20;;;;;;5031286;28;20038;-51
2023/01/15 07:29:36;;;;;;;2.70;0.95;;;9.90;70.10;;;;;;5020525;28;20042;-47
2023/01/15 07:32:03;;;;;;;4.18;0.90;;;9.90;70.10;;;;;;5030825;28;20053;-49
2023/01/15 07:34:29;;;;;;;3.38;1.27;;;9.90;70.10;;;;;;5030589;28;20037;-51
2023/01/15 07:36:57;;;;;;;5.78;1.42;;;9.90;70.10;;;;;;5014210;28;20041;-47
2023/01/15 07:39:24;;;;;;;3.95;1.02;;;9.90;70.20;;;;;;4999083;28;20451;-49
2023/01/15 07:50:13;;;;;;;3.22;1.00;;;9.90;70.00;;;;;;5020347;28;20045;-48
2023/01/15 07:52:39;;;;;;;2.53;1.08;;;9.80;70.40;;;;;;5028276;28;20045;-49
2023/01/15 07:55:08;;;;;;;1.45;0.52;;;9.80;69.80;;;;;;5021943;28;20037;-48
2023/01/15 07:57:36;;;;;;;2.28;1.20;;;9.80;69.40;;;;;;5004453;28;20124;-49
2023/01/15 08:00:04;;;;;;;2.60;0.85;;;9.80;69.40;;;;;;5030435;28;20045;-48
2023/01/15 08:02:38;;;;;;;4.60;1.00;;;9.70;70.10;;;;;;5079028;23;20527;-45
2023/01/15 08:05:05;;;;;;;3.17;0.98;;;9.70;69.40;;;;;;5061281;28;20497;-46
2023/01/15 08:07:39;;;;;;;2.72;0.75;;;9.70;69.20;;;;;;5060647;28;20041;-47
2023/01/15 08:10:10;;;;;;;1.98;0.60;;;9.70;69.00;;;;;;5063911;28;20040;-46
2023/01/15 08:15:24;;;;;;;2.13;0.90;;;9.60;69.00;;;;;;5047396;28;20047;-50
2023/01/15 08:17:52;;;;;;;1.25;0.47;;;9.60;69.10;;;;;;5045964;28;20581;-48
2023/01/15 08:20:21;;;;;;;0.57;0.52;;;9.60;68.90;;;;;;5050101;28;20043;-47
2023/01/15 08:22:48;;;;;;;2.22;0.55;;;9.60;68.80;;;;;;5049886;28;20087;-46
2023/01/15 08:25:18;;;;;;;2.72;0.95;;;9.50;68.70;;;;;;5048332;28;20045;-50
2023/01/15 08:27:45;;;;;;;2.28;0.90;;;9.50;68.60;;;;;;5049649;28;20116;-49
2023/01/15 08:30:15;;;;;;;1.20;0.80;;;9.50;68.60;;;;;;5032681;28;20098;-46
2023/01/15 08:32:42;;;;;;;1.60;0.70;;;9.50;68.60;;;;;;5044693;28;20052;-50
2023/01/15 08:35:09;;;;;;;2.67;1.10;;;9.40;68.60;;;;;;5043125;28;20119;-46
2023/01/15 08:37:36;;;;;;;2.30;1.30;;;9.40;68.70;;;;;;5046305;28;20071;-50
2023/01/15 08:40:03;;;;;;;3.17;1.73;;;9.30;68.70;;;;;;5048739;28;20037;-47
2023/01/15 08:42:32;;;;;;;4.72;1.70;;;9.30;68.80;;;;;;5048617;28;20100;-47
2023/01/15 08:44:59;;;;;;;3.65;1.02;;;9.30;68.90;;;;;;5045418;28;20041;-45
2023/01/15 08:47:26;;;;;;;3.00;0.73;;;9.30;68.90;;;;;;5043517;28;20063;-46
2023/01/15 08:49:55;;;;;;;1.92;0.80;;;9.30;68.90;;;;;;5049340;28;20432;-49
2023/01/15 08:52:22;;;;;;;3.30;1.35;;;9.20;69.00;;;;;;5047453;28;20136;-47
2023/01/15 08:54:49;;;;;;;1.85;0.70;;;9.20;69.10;;;;;;5043378;28;20040;-47
2023/01/15 08:57:15;;;;;;;2.72;0.85;;;9.20;69.10;;;;;;5050318;28;20037;-50
2023/01/15 08:59:42;;;;;;;5.88;1.08;;;9.20;69.30;;;;;;5048442;28;20670;-47
2023/01/15 09:02:14;;;;;;;2.80;1.13;;;9.10;69.30;;;;;;5044312;28;20390;-47
2023/01/15 09:04:40;;;;;;;1.30;0.60;;;9.10;69.40;;;;;;5046786;28;20080;-51
2023/01/15 09:07:07;;;;;;;4.63;1.20;;;9.10;69.60;;;;;;5031839;28;20283;-51
2023/01/15 09:09:34;;;;;;;1.65;0.70;;;9.10;69.70;;;;;;5048388;28;20041;-47
2023/01/15 09:12:01;;;;;;;5.32;1.15;;;9.10;69.80;;;;;;5040243;28;20037;-50
2023/01/15 09:14:27;;;;;;;2.40;0.75;;;9.00;69.90;;;;;;5022324;28;20136;-48
2023/01/15 09:17:14;;;;;;;5.22;0.77;;;9.00;70.00;;;;;;5051541;28;20041;-50
2023/01/15 09:19:41;;;;;;;3.15;0.90;;;9.10;70.00;;;;;;5049136;28;20456;-47
2023/01/15 09:22:07;;;;;;;7.15;1.20;;;9.10;70.00;;;;;;5045733;28;20709;-48
2023/01/15 09:24:34;;;;;;;3.30;1.05;;;9.00;69.90;;;;;;5047333;28;20048;-50
2023/01/15 09:27:01;;;;;;;2.80;1.10;;;9.00;70.00;;;;;;5042983;28;20047;-51
2023/01/15 09:29:27;;;;;;;9.75;1.25;;;9.10;70.00;;;;;;5043848;28;20049;-50
2023/01/15 09:31:54;;;;;;;5.40;1.10;;;9.10;69.90;;;;;;5046223;28;20128;-48
2023/01/15 09:34:23;;;;;;;2.28;1.05;;;9.10;69.90;;;;;;5048160;28;20037;-51
2023/01/15 09:36:55;;;;;;;1.90;0.70;;;9.10;69.80;;;;;;5045242;28;20557;-49
2023/01/15 09:39:25;;;;;;;4.35;1.15;;;9.20;69.80;;;;;;5044474;28;20115;-51
2023/01/15 09:42:19;;;;;;;3.47;0.90;;;9.20;69.70;;;;;;5041987;28;20579;-51
2023/01/15 09:44:45;;;;;;;6.05;0.85;;;9.30;69.60;;;;;;5048548;28;20140;-51
2023/01/15 09:47:24;;;;;;;5.28;1.15;;;9.30;70.40;;;;;;5050720;28;20044;-50
2023/01/15 09:50:14;;;;;;;3.08;1.48;;;9.40;69.70;;;;;;5040259;28;20055;-51
2023/01/15 09:52:49;;;;;;;2.72;0.73;;;9.50;69.20;;;;;;5032086;28;20056;-51
2023/01/15 09:55:22;;;;;;;5.20;1.00;;;9.50;69.30;;;;;;5049224;28;20072;-51
2023/01/15 09:57:56;;;;;;;7.55;1.80;;;9.60;68.90;;;;;;5044240;28;20044;-48
2023/01/15 10:00:31;;;;;;;5.05;1.23;;;9.60;69.10;;;;;;5049328;28;20429;-52
2023/01/15 10:03:22;;;;;;;5.18;1.27;;;9.60;68.10;;;;;;5049470;28;20037;-49
2023/01/15 10:06:00;;;;;;;5.10;1.65;;;9.70;67.50;;;;;;5029272;28;20506;-49
2023/01/15 10:08:41;;;;;;;4.90;1.15;;;9.80;68.00;;;;;;5043730;28;20041;-47
2023/01/15 10:12:33;;;;;;;2.60;1.08;;;9.80;68.40;;;;;;5043985;28;20120;-51
2023/01/15 10:14:30;;;;;;;5.95;1.50;;;9.90;67.60;;;;;;5036011;28;20055;-48
2023/01/15 10:16:57;;;;;;;;;;;10.00;67.50;;;;;;5050076;28;20039;-51
2023/01/15 10:19:23;;;;;;;13.82;1.80;;;10.00;67.50;;;;;;5048892;28;19921;-50
2023/01/15 10:22:19;;;;;;;8.90;1.55;;;10.10;67.40;;;;;;5042080;28;20068;-48
2023/01/15 10:24:55;;;;;;;4.88;0.93;;;10.20;66.90;;;;;;5043605;28;20041;-51
2023/01/15 10:27:25;;;;;;;4.47;2.13;;;10.30;67.10;;;;;;5024925;28;20059;-47
2023/01/15 10:30:02;;;;;;;3.70;1.50;;;10.30;67.20;;;;;;5045729;28;20030;-47
2023/01/15 10:32:38;;;;;;;6.78;1.60;;;10.30;66.30;;;;;;5029134;28;20041;-50
2023/01/15 10:35:10;;;;;;;5.78;1.25;;;10.40;66.10;;;;;;5045695;28;20041;-49
2023/01/15 10:37:52;;;;;;;5.97;1.25;;;10.40;66.20;;;;;;5031275;28;20029;-48
2023/01/15 10:40:37;;;;;;;;;;;10.40;65.90;;;;;;5043933;28;20040;-48
2023/01/15 10:43:23;;;;;;;6.30;1.00;;;10.50;66.40;;;;;;5043439;28;19967;-49
2023/01/15 10:45:55;;;;;;;4.90;1.42;;;10.50;65.50;;;;;;5035332;28;20076;-48
2023/01/15 10:48:35;;;;;;;5.60;1.25;;;10.50;65.80;;;;;;5046029;28;20063;-48
2023/01/15 10:51:12;;;;;;;2.00;1.08;;;10.50;64.90;;;;;;5046552;28;20044;-47
2023/01/15 10:53:56;;;;;;;4.90;1.17;;;10.60;65.20;;;;;;5048557;28;20056;-47
2023/01/15 10:56:36;;;;;;;5.80;1.40;;;10.60;64.40;;;;;;5047860;28;20033;-49
2023/01/15 10:59:15;;;;;;;6.15;1.50;;;10.60;64.60;;;;;;5030604;28;20072;-51
2023/01/15 11:01:42;;;;;;;2.00;0.90;;;10.60;65.10;;;;;;5048818;28;20045;-50
2023/01/15 11:04:14;;;;;;;3.72;1.52;;;10.60;64.90;;;;;;5040479;28;20112;-51
2023/01/15 11:06:41;;;;;;;4.13;0.88;;;10.60;64.50;;;;;;5047148;28;20041;-51
2023/01/15 11:09:22;;;;;;;2.58;0.98;;;10.60;64.00;;;;;;5049504;28;20041;-47
2023/01/15 11:20:19;;;;;;;3.42;1.50;;;10.60;63.70;;;;;;5041648;28;20041;-50
2023/01/15 11:22:46;;;;;;;2.95;0.75;;;10.60;63.70;;;;;;5047581;28;20045;-51
2023/01/15 11:25:13;;;;;;;3.55;1.10;;;10.70;63.80;;;;;;5051843;28;20094;-49
2023/01/15 11:27:39;;;;;;;2.30;1.17;;;10.60;63.70;;;;;;5053257;28;20124;-51
2023/01/15 11:30:24;;;;;;;4.10;1.00;;;10.60;63.90;;;;;;5051684;28;20115;-51
2023/01/15 11:32:56;;;;;;;4.43;0.90;;;10.60;63.70;;;;;;5025731;28;20110;-48
2023/01/15 11:35:22;;;;;;;3.67;0.77;;;10.70;63.70;;;;;;5051412;28;20041;-51
2023/01/15 11:37:49;;;;;;;1.92;0.70;;;10.70;63.70;;;;;;5035279;28;20047;-49
2023/01/15 11:40:23;;;;;;;3.15;0.82;;;10.70;63.30;;;;;;5049206;28;20032;-50
2023/01/15 11:51:41;;;;;;;2.92;0.95;;;10.70;62.30;;;;;;5047991;28;20379;-48
2023/01/15 11:54:11;;;;;;;1.20;0.93;;;10.70;62.60;;;;;;5052324;28;20452;-51
2023/01/15 11:56:42;;;;;;;3.42;0.77;;;10.70;62.60;;;;;;5052487;28;20037;-50
2023/01/15 11:59:12;;;;;;;2.15;0.63;;;10.70;62.80;;;;;;5030028;28;20061;-49
2023/01/15 12:01:53;;;;;;;1.58;0.60;;;10.70;63.10;;;;;;5044653;28;20038;-50
2023/01/15 12:04:31;;;;;;;1.05;0.55;;;10.70;62.60;;;;;;5032884;28;20048;-49
2023/01/15 12:07:00;;;;;;;2.83;0.82;;;10.70;62.40;;;;;;5051956;28;20068;-49
2023/01/15 12:09:33;;;;;;;1.48;0.88;;;10.70;63.20;;;;;;5047134;28;20033;-49
2023/01/15 12:12:17;;;;;;;3.88;1.08;;;10.70;62.90;;;;;;5051641;28;20456;-51
2023/01/15 12:15:06;;;;;;;1.25;0.57;;;10.80;62.30;;;;;;5050232;28;20174;-47
2023/01/15 12:17:58;;;;;;;2.88;0.70;;;10.80;62.30;;;;;;5048936;28;20047;-51
2023/01/15 12:20:34;;;;;;;2.47;0.65;;;10.80;61.80;;;;;;5041612;28;20396;-49
2023/01/15 12:23:36;;;;;;;2.70;0.75;;;10.80;61.80;;;;;;5044270;28;20060;-48
2023/01/15 12:26:26;;;;;;;4.10;0.82;;;10.80;61.80;;;;;;5044791;28;20045;-51
2023/01/15 12:29:04;;;;;;;2.88;0.52;;;10.80;61.80;;;;;;5050415;28;20041;-46
2023/01/15 12:31:40;;;;;;;0.88;0.40;;;10.70;62.00;;;;;;5025507;28;20839;-49
2023/01/15 12:34:22;;;;;;;1.67;0.70;;;10.70;62.30;;;;;;5050808;28;20048;-48
2023/01/15 12:37:04;;;;;;;2.22;0.70;;;10.70;62.30;;;;;;5048304;28;20045;-51
2023/01/15 12:39:35;;;;;;;2.17;0.88;;;10.70;62.10;;;;;;5042313;28;20040;-48
2023/01/15 12:44:59;;;;;;;3.70;0.80;;;10.80;62.60;;;;;;5040632;28;20117;-47
2023/01/15 12:47:44;;;;;;;2.75;0.70;;;10.80;62.20;;;;;;5048940;28;20448;-51
2023/01/15 12:50:38;;;;;;;1.63;1.25;;;10.80;62.10;;;;;;5044615;28;20045;-48
2023/01/15 12:53:22;;;;;;;4.25;1.10;;;10.80;61.80;;;;;;5042813;28;20155;-51
2023/01/15 12:56:10;;;;;;;3.17;1.13;;;10.80;61.80;;;;;;5050223;28;20052;-47
2023/01/15 12:59:09;;;;;;;3.42;1.00;;;10.80;61.60;;;;;;5045808;28;20033;-48
2023/01/15 13:01:44;;;;;;;2.30;0.90;;;10.80;61.20;;;;;;5051088;28;20033;-51
2023/01/15 13:04:23;;;;;;;3.25;0.90;;;10.80;62.00;;;;;;5050812;28;20033;-50
2023/01/15 13:06:58;;;;;;;1.65;0.73;;;10.80;62.00;;;;;;5048350;28;20076;-50
2023/01/15 13:09:41;;;;;;;2.40;1.00;;;10.80;62.10;;;;;;5042871;28;20041;-51
2023/01/15 13:12:15;;;;;;;1.80;0.95;;;10.80;61.60;;;;;;5038097;28;20053;-49
2023/01/15 13:14:42;;;;;;;;;;;10.80;61.80;;;;;;5047509;28;20073;-51
2023/01/15 13:17:46;;;;;;;1.45;0.63;;;10.80;62.10;;;;;;5040147;28;19930;-51
2023/01/15 13:20:26;;;;;;;2.63;0.68;;;10.80;60.80;;;;;;5042898;28;20464;-50
2023/01/15 13:23:14;;;;;;;3.17;0.60;;;10.80;61.50;;;;;;5049696;28;20071;-51
2023/01/15 13:25:51;;;;;;;2.92;1.17;;;10.80;61.30;;;;;;5047874;28;20037;-46
2023/01/15 13:28:39;;;;;;;1.73;0.77;;;10.80;61.20;;;;;;5047589;28;20604;-50
2023/01/15 13:31:10;;;;;;;6.63;0.82;;;10.70;61.30;;;;;;5039995;28;20029;-47
2023/01/15 13:33:45;;;;;;;2.75;1.08;;;10.70;61.70;;;;;;5046322;28;20112;-48
2023/01/15 13:36:20;;;;;;;1.13;0.65;;;10.70;61.60;;;;;;5032644;28;20135;-49
2023/01/15 13:38:53;;;;;;;2.70;1.10;;;10.80;61.40;;;;;;5049535;28;20045;-47
2023/01/15 13:44:24;;;;;;;2.35;0.90;;;10.80;61.50;;;;;;5048006;28;20083;-47
2023/01/15 13:47:04;;;;;;;2.72;0.52;;;10.70;61.00;;;;;;5049914;28;20040;-46
2023/01/15 13:49:34;;;;;;;1.38;0.50;;;10.70;60.90;;;;;;5049025;28;20044;-47
2023/01/15 13:52:05;;;;;;;2.45;0.98;;;10.70;61.40;;;;;;5040803;28;20086;-48
2023/01/15 13:54:39;;;;;;;5.55;1.02;;;10.70;61.30;;;;;;5040160;28;20037;-51
2023/01/15 13:57:33;;;;;;;3.60;1.08;;;10.80;61.30;;;;;;5042554;28;20532;-47
2023/01/15 14:00:03;;;;;;;1.55;0.68;;;10.70;60.40;;;;;;5033495;28;20078;-47
2023/01/15 14:02:39;;;;;;;4.57;1.23;;;10.70;61.30;;;;;;5043818;28;20048;-51
2023/01/15 14:05:27;;;;;;;5.65;1.02;;;10.70;61.40;;;;;;5047320;28;20051;-48
2023/01/15 14:07:54;;;;;;;3.47;0.90;;;10.70;60.50;;;;;;5046587;28;20038;-48
2023/01/15 14:10:32;;;;;;;3.83;0.88;;;10.70;61.30;;;;;;5048591;28;20112;-46